createdAt,value
2017-11-07T00:00:28.891Z,1045.3
2017-11-07T00:01:28.879Z,1045.35
2017-11-07T00:02:28.865Z,1045.32
2017-11-07T00:03:28.849Z,1045.29
2017-11-07T00:04:28.837Z,1045.25
2017-11-07T00:05:28.821Z,1045.22
2017-11-07T00:06:28.807Z,1045.18
2017-11-07T00:07:28.799Z,1045.18
2017-11-07T00:08:28.778Z,1045.18
2017-11-07T00:09:28.764Z,1045.14
2017-11-07T00:10:28.759Z,1045.18
2017-11-07T00:11:28.736Z,1045.17
2017-11-07T00:12:28.725Z,1045.15
2017-11-07T00:13:28.709Z,1045.16
2017-11-07T00:14:28.694Z,1045.11
2017-11-07T00:15:28.696Z,1045.13
2017-11-07T00:16:28.666Z,1045.1
2017-11-07T00:17:28.653Z,1045.09
2017-11-07T00:18:28.637Z,1045.16
2017-11-07T00:19:28.624Z,1045.1
2017-11-07T00:20:28.611Z,1045.12
2017-11-07T00:21:28.599Z,1045.09
2017-11-07T00:22:28.583Z,1045.05
2017-11-07T00:23:28.569Z,1045
2017-11-07T00:24:28.555Z,1044.98
2017-11-07T00:25:28.539Z,1044.94
2017-11-07T00:26:28.534Z,1044.94
2017-11-07T00:27:28.514Z,1044.91
2017-11-07T00:28:28.499Z,1044.91
2017-11-07T00:29:28.485Z,1044.91
2017-11-07T00:30:28.472Z,1044.91
2017-11-07T00:31:28.459Z,1044.92
2017-11-07T00:32:28.445Z,1044.96
2017-11-07T00:33:28.433Z,1044.94
2017-11-07T00:34:28.417Z,1044.93
2017-11-07T00:35:28.402Z,1044.93
2017-11-07T00:36:28.395Z,1044.94
2017-11-07T00:37:28.374Z,1044.95
2017-11-07T00:38:28.361Z,1044.91
2017-11-07T00:39:28.347Z,1044.97
2017-11-07T00:40:28.331Z,1044.95
2017-11-07T00:41:28.318Z,1044.93
2017-11-07T00:42:28.304Z,1044.94
2017-11-07T00:43:28.292Z,1044.96
2017-11-07T00:44:28.277Z,1044.94
2017-11-07T00:45:28.265Z,1044.94
2017-11-07T00:46:28.252Z,1044.89
2017-11-07T00:47:28.235Z,1044.93
2017-11-07T00:48:28.222Z,1044.94
2017-11-07T00:49:28.208Z,1044.96
2017-11-07T00:50:28.195Z,1044.97
2017-11-07T00:51:28.180Z,1044.97
2017-11-07T00:52:28.166Z,1044.97
2017-11-07T00:53:28.169Z,1044.96
2017-11-07T00:54:28.138Z,1044.99
2017-11-07T00:55:28.126Z,1044.97
2017-11-07T00:56:28.114Z,1045.04
2017-11-07T00:57:28.098Z,1045.04
2017-11-07T00:58:28.083Z,1045.01
2017-11-07T00:59:28.069Z,1044.97
2017-11-07T01:00:28.056Z,1045.06
2017-11-07T01:01:28.042Z,1045.04
2017-11-07T01:02:28.028Z,1045.06
2017-11-07T01:03:28.015Z,1045.08
2017-11-07T01:04:28.005Z,1045.02
2017-11-07T01:05:27.986Z,1045.07
2017-11-07T01:06:27.972Z,1045.06
2017-11-07T01:07:27.959Z,1045
2017-11-07T01:08:27.944Z,1045
2017-11-07T01:09:27.930Z,1044.96
2017-11-07T01:10:27.916Z,1044.95
2017-11-07T01:11:27.908Z,1044.95
2017-11-07T01:12:27.889Z,1044.94
2017-11-07T01:13:27.875Z,1044.94
2017-11-07T01:14:27.860Z,1044.96
2017-11-07T01:15:27.847Z,1044.94
2017-11-07T01:16:27.833Z,1044.94
2017-11-07T01:17:27.826Z,1044.97
2017-11-07T01:18:27.806Z,1044.92
2017-11-07T01:19:27.792Z,1044.89
2017-11-07T01:20:27.777Z,1044.84
2017-11-07T01:21:27.764Z,1044.83
2017-11-07T01:22:27.750Z,1044.77
2017-11-07T01:23:27.740Z,1044.79
2017-11-07T01:24:27.721Z,1044.78
2017-11-07T01:25:27.708Z,1044.76
2017-11-07T01:26:27.694Z,1044.73
2017-11-07T01:27:27.680Z,1044.77
2017-11-07T01:28:27.665Z,1044.75
2017-11-07T01:29:27.652Z,1044.65
2017-11-07T01:30:27.638Z,1044.65
2017-11-07T01:31:27.624Z,1044.64
2017-11-07T01:32:27.610Z,1044.64
2017-11-07T01:33:27.599Z,1044.61
2017-11-07T01:34:27.583Z,1044.61
2017-11-07T01:35:27.571Z,1044.61
2017-11-07T01:36:27.556Z,1044.63
2017-11-07T01:37:27.544Z,1044.64
2017-11-07T01:38:27.528Z,1044.61
2017-11-07T01:39:27.515Z,1044.61
2017-11-07T01:40:27.506Z,1044.62
2017-11-07T01:41:27.488Z,1044.57
2017-11-07T01:42:27.473Z,1044.58
2017-11-07T01:43:27.461Z,1044.53
2017-11-07T01:44:27.447Z,1044.52
2017-11-07T01:45:27.435Z,1044.56
2017-11-07T01:46:27.420Z,1044.51
2017-11-07T01:47:27.406Z,1044.49
2017-11-07T01:48:27.394Z,1044.47
2017-11-07T01:49:27.379Z,1044.43
2017-11-07T01:50:27.366Z,1044.41
2017-11-07T01:51:27.353Z,1044.41
2017-11-07T01:52:27.340Z,1044.42
2017-11-07T01:53:27.324Z,1044.42
2017-11-07T01:54:27.311Z,1044.41
2017-11-07T01:55:27.299Z,1044.44
2017-11-07T01:56:27.286Z,1044.41
2017-11-07T01:57:27.272Z,1044.45
2017-11-07T01:58:27.259Z,1044.44
2017-11-07T01:59:27.249Z,1044.43
2017-11-07T02:00:27.231Z,1044.45
2017-11-07T02:01:27.218Z,1044.46
2017-11-07T02:02:27.205Z,1044.44
2017-11-07T02:03:27.192Z,1044.46
2017-11-07T02:04:27.177Z,1044.45
2017-11-07T02:05:27.165Z,1044.46
2017-11-07T02:06:27.155Z,1044.47
2017-11-07T02:07:27.137Z,1044.45
2017-11-07T02:08:27.124Z,1044.4
2017-11-07T02:09:27.113Z,1044.43
2017-11-07T02:10:27.097Z,1044.44
2017-11-07T02:11:27.084Z,1044.42
2017-11-07T02:12:27.070Z,1044.41
2017-11-07T02:13:27.058Z,1044.42
2017-11-07T02:14:27.044Z,1044.37
2017-11-07T02:15:27.028Z,1044.4
2017-11-07T02:16:27.017Z,1044.42
2017-11-07T02:17:27.004Z,1044.43
2017-11-07T02:18:26.989Z,1044.4
2017-11-07T02:19:26.976Z,1044.43
2017-11-07T02:20:26.963Z,1044.39
2017-11-07T02:21:26.953Z,1044.42
2017-11-07T02:22:26.937Z,1044.43
2017-11-07T02:23:26.923Z,1044.46
2017-11-07T02:24:26.910Z,1044.46
2017-11-07T02:25:26.898Z,1044.48
2017-11-07T02:26:26.884Z,1044.5
2017-11-07T02:27:26.870Z,1044.49
2017-11-07T02:28:26.857Z,1044.49
2017-11-07T02:29:26.842Z,1044.41
2017-11-07T02:30:26.828Z,1044.43
2017-11-07T02:31:26.817Z,1044.45
2017-11-07T02:32:26.804Z,1044.4
2017-11-07T02:33:26.789Z,1044.37
2017-11-07T02:34:26.776Z,1044.35
2017-11-07T02:35:26.764Z,1044.34
2017-11-07T02:36:26.751Z,1044.35
2017-11-07T02:37:26.737Z,1044.35
2017-11-07T02:38:26.725Z,1044.33
2017-11-07T02:39:26.711Z,1044.37
2017-11-07T02:40:26.711Z,1044.4
2017-11-07T02:41:26.688Z,1044.46
2017-11-07T02:42:26.670Z,1044.48
2017-11-07T02:43:26.657Z,1044.54
2017-11-07T02:44:26.644Z,1044.63
2017-11-07T02:45:26.631Z,1044.68
2017-11-07T02:46:26.617Z,1044.7
2017-11-07T02:47:26.603Z,1044.73
2017-11-07T02:48:26.589Z,1044.74
2017-11-07T02:49:26.577Z,1044.79
2017-11-07T02:50:26.564Z,1044.78
2017-11-07T02:51:26.548Z,1044.81
2017-11-07T02:52:26.537Z,1044.86
2017-11-07T02:53:26.525Z,1044.86
2017-11-07T02:54:26.511Z,1044.91
2017-11-07T02:55:26.495Z,1044.92
2017-11-07T02:56:26.482Z,1044.94
2017-11-07T02:57:26.473Z,1044.96
2017-11-07T02:58:26.457Z,1044.94
2017-11-07T02:59:26.443Z,1044.95
2017-11-07T03:00:26.428Z,1044.97
2017-11-07T03:01:26.416Z,1044.99
2017-11-07T03:02:26.402Z,1044.97
2017-11-07T03:03:26.388Z,1044.97
2017-11-07T03:04:26.374Z,1044.97
2017-11-07T03:05:26.361Z,1045
2017-11-07T03:06:26.347Z,1045
2017-11-07T03:07:26.334Z,1045.05
2017-11-07T03:08:26.321Z,1045
2017-11-07T03:09:26.307Z,1045.01
2017-11-07T03:10:26.292Z,1045.02
2017-11-07T03:11:26.280Z,1045.03
2017-11-07T03:12:26.265Z,1045.01
2017-11-07T03:13:26.252Z,1045.06
2017-11-07T03:14:26.239Z,1045.04
2017-11-07T03:15:26.224Z,1045.06
2017-11-07T03:16:26.213Z,1045.03
2017-11-07T03:17:26.197Z,1045.03
2017-11-07T03:18:26.182Z,1045.01
2017-11-07T03:19:26.171Z,1045.02
2017-11-07T03:20:26.157Z,1044.99
2017-11-07T03:21:26.141Z,1045
2017-11-07T03:22:26.129Z,1044.97
2017-11-07T03:23:26.114Z,1044.96
2017-11-07T03:24:26.099Z,1044.95
2017-11-07T03:25:26.088Z,1044.93
2017-11-07T03:26:26.074Z,1044.94
2017-11-07T03:27:26.060Z,1044.93
2017-11-07T03:28:26.045Z,1044.93
2017-11-07T03:29:26.032Z,1044.95
2017-11-07T03:30:26.020Z,1044.9
2017-11-07T03:31:26.005Z,1044.88
2017-11-07T03:32:25.990Z,1044.85
2017-11-07T03:33:25.977Z,1044.84
2017-11-07T03:34:25.963Z,1044.82
2017-11-07T03:35:25.949Z,1044.8
2017-11-07T03:36:25.934Z,1044.77
2017-11-07T03:37:25.920Z,1044.74
2017-11-07T03:38:25.911Z,1044.72
2017-11-07T03:39:25.894Z,1044.69
2017-11-07T03:40:25.882Z,1044.69
2017-11-07T03:41:25.867Z,1044.72
2017-11-07T03:42:25.853Z,1044.77
2017-11-07T03:43:25.838Z,1044.7
2017-11-07T03:44:25.826Z,1044.7
2017-11-07T03:45:25.816Z,1044.71
2017-11-07T03:46:25.799Z,1044.74
2017-11-07T03:47:25.783Z,1044.76
2017-11-07T03:48:25.784Z,1044.71
2017-11-07T03:49:25.757Z,1044.74
2017-11-07T03:50:25.741Z,1044.78
2017-11-07T03:51:25.732Z,1044.77
2017-11-07T03:52:25.715Z,1044.78
2017-11-07T03:53:25.704Z,1044.82
2017-11-07T03:54:25.687Z,1044.77
2017-11-07T03:55:25.680Z,1044.84
2017-11-07T03:56:25.661Z,1044.81
2017-11-07T03:57:25.647Z,1044.82
2017-11-07T03:58:25.633Z,1044.83
2017-11-07T03:59:25.619Z,1044.8
2017-11-07T04:00:25.605Z,1044.79
2017-11-07T04:01:25.591Z,1044.79
2017-11-07T04:02:25.577Z,1044.8
2017-11-07T04:03:25.565Z,1044.76
2017-11-07T04:04:25.551Z,1044.73
2017-11-07T04:05:25.537Z,1044.74
2017-11-07T04:06:25.522Z,1044.72
2017-11-07T04:07:25.509Z,1044.77
2017-11-07T04:08:25.515Z,1044.76
2017-11-07T04:09:25.482Z,1044.75
2017-11-07T04:10:25.467Z,1044.77
2017-11-07T04:11:25.455Z,1044.75
2017-11-07T04:12:25.440Z,1044.76
2017-11-07T04:13:25.426Z,1044.76
2017-11-07T04:14:25.413Z,1044.74
2017-11-07T04:15:25.400Z,1044.72
2017-11-07T04:16:25.384Z,1044.74
2017-11-07T04:17:25.370Z,1044.7
2017-11-07T04:18:25.357Z,1044.68
2017-11-07T04:19:25.342Z,1044.65
2017-11-07T04:20:25.329Z,1044.62
2017-11-07T04:21:25.317Z,1044.61
2017-11-07T04:22:25.302Z,1044.62
2017-11-07T04:23:25.288Z,1044.63
2017-11-07T04:24:25.274Z,1044.66
2017-11-07T04:25:25.261Z,1044.64
2017-11-07T04:26:25.248Z,1044.66
2017-11-07T04:27:25.232Z,1044.64
2017-11-07T04:28:25.218Z,1044.63
2017-11-07T04:29:25.206Z,1044.63
2017-11-07T04:30:25.191Z,1044.65
2017-11-07T04:31:25.177Z,1044.67
2017-11-07T04:32:25.165Z,1044.64
2017-11-07T04:33:25.152Z,1044.66
2017-11-07T04:34:25.139Z,1044.66
2017-11-07T04:35:25.123Z,1044.71
2017-11-07T04:36:25.109Z,1044.74
2017-11-07T04:37:25.094Z,1044.68
2017-11-07T04:38:25.082Z,1044.75
2017-11-07T04:39:25.067Z,1044.78
2017-11-07T04:40:25.053Z,1044.76
2017-11-07T04:41:25.040Z,1044.83
2017-11-07T04:42:25.026Z,1044.76
2017-11-07T04:43:25.013Z,1044.77
2017-11-07T04:44:24.998Z,1044.78
2017-11-07T04:45:24.985Z,1044.81
2017-11-07T04:46:24.970Z,1044.83
2017-11-07T04:47:24.958Z,1044.87
2017-11-07T04:48:24.942Z,1044.84
2017-11-07T04:49:24.928Z,1044.83
2017-11-07T04:50:24.915Z,1044.9
2017-11-07T04:51:24.902Z,1044.88
2017-11-07T04:52:24.886Z,1044.93
2017-11-07T04:53:24.874Z,1044.94
2017-11-07T04:54:24.860Z,1044.91
2017-11-07T04:55:24.849Z,1044.91
2017-11-07T04:56:24.830Z,1044.94
2017-11-07T04:57:24.819Z,1044.89
2017-11-07T04:58:24.804Z,1044.89
2017-11-07T04:59:24.788Z,1044.91
2017-11-07T05:00:24.774Z,1044.87
2017-11-07T05:01:24.761Z,1044.88
2017-11-07T05:02:24.748Z,1044.88
2017-11-07T05:03:24.733Z,1044.86
2017-11-07T05:04:24.720Z,1044.83
2017-11-07T05:05:24.706Z,1044.82
2017-11-07T05:06:24.697Z,1044.84
2017-11-07T05:07:24.679Z,1044.8
2017-11-07T05:08:24.663Z,1044.81
2017-11-07T05:09:24.649Z,1044.79
2017-11-07T05:10:24.635Z,1044.76
2017-11-07T05:11:24.622Z,1044.77
2017-11-07T05:12:24.608Z,1044.84
2017-11-07T05:13:24.595Z,1044.85
2017-11-07T05:14:24.580Z,1044.86
2017-11-07T05:15:24.565Z,1044.86
2017-11-07T05:16:24.551Z,1044.87
2017-11-07T05:17:24.538Z,1044.88
2017-11-07T05:18:24.527Z,1044.91
2017-11-07T05:19:24.509Z,1044.85
2017-11-07T05:20:24.495Z,1044.83
2017-11-07T05:21:24.480Z,1044.88
2017-11-07T05:22:24.468Z,1044.84
2017-11-07T05:23:24.459Z,1044.87
2017-11-07T05:24:24.439Z,1044.85
2017-11-07T05:25:24.425Z,1044.84
2017-11-07T05:26:24.411Z,1044.89
2017-11-07T05:27:24.397Z,1044.93
2017-11-07T05:28:24.384Z,1044.92
2017-11-07T05:29:24.370Z,1045.03
2017-11-07T05:30:24.355Z,1045.02
2017-11-07T05:31:24.341Z,1045.09
2017-11-07T05:32:24.330Z,1045.06
2017-11-07T05:33:24.312Z,1045.11
2017-11-07T05:34:24.298Z,1045.08
2017-11-07T05:35:24.284Z,1045.05
2017-11-07T05:36:24.269Z,1045.02
2017-11-07T05:37:24.256Z,1045.01
2017-11-07T05:38:24.242Z,1044.98
2017-11-07T05:39:24.228Z,1044.94
2017-11-07T05:40:24.214Z,1044.92
2017-11-07T05:41:24.200Z,1044.93
2017-11-07T05:42:24.185Z,1044.89
2017-11-07T05:43:24.170Z,1044.9
2017-11-07T05:44:24.163Z,1044.93
2017-11-07T05:45:24.144Z,1044.93
2017-11-07T05:46:24.129Z,1044.94
2017-11-07T05:47:24.113Z,1044.94
2017-11-07T05:48:24.109Z,1044.9
2017-11-07T05:49:24.087Z,1044.85
2017-11-07T05:50:24.072Z,1044.83
2017-11-07T05:51:24.057Z,1044.8
2017-11-07T05:52:24.043Z,1044.79
2017-11-07T05:53:24.030Z,1044.81
2017-11-07T05:54:24.023Z,1044.8
2017-11-07T05:55:24.003Z,1044.75
2017-11-07T05:56:23.988Z,1044.75
2017-11-07T05:57:23.973Z,1044.72
2017-11-07T05:58:23.959Z,1044.69
2017-11-07T05:59:23.945Z,1044.66
2017-11-07T06:00:23.931Z,1044.58
2017-11-07T06:01:23.916Z,1044.61
2017-11-07T06:02:23.903Z,1044.59
2017-11-07T06:03:23.888Z,1044.63
2017-11-07T06:04:23.890Z,1044.63
2017-11-07T06:05:23.862Z,1044.63
2017-11-07T06:06:23.848Z,1044.64
2017-11-07T06:07:23.833Z,1044.62
2017-11-07T06:08:23.819Z,1044.61
2017-11-07T06:09:23.804Z,1044.61
2017-11-07T06:10:23.791Z,1044.58
2017-11-07T06:11:23.779Z,1044.57
2017-11-07T06:12:23.769Z,1044.6
2017-11-07T06:13:23.750Z,1044.56
2017-11-07T06:14:23.736Z,1044.56
2017-11-07T06:15:23.723Z,1044.53
2017-11-07T06:16:23.708Z,1044.51
2017-11-07T06:17:23.695Z,1044.53
2017-11-07T06:18:23.680Z,1044.49
2017-11-07T06:19:23.667Z,1044.45
2017-11-07T06:20:23.653Z,1044.47
2017-11-07T06:21:23.639Z,1044.47
2017-11-07T06:22:23.625Z,1044.47
2017-11-07T06:23:23.611Z,1044.46
2017-11-07T06:24:23.596Z,1044.48
2017-11-07T06:25:23.584Z,1044.48
2017-11-07T06:26:23.570Z,1044.48
2017-11-07T06:27:23.554Z,1044.48
2017-11-07T06:28:23.542Z,1044.52
2017-11-07T06:29:23.537Z,1044.5
2017-11-07T06:30:23.515Z,1044.46
2017-11-07T06:31:23.500Z,1044.51
2017-11-07T06:32:23.486Z,1044.48
2017-11-07T06:33:23.472Z,1044.48
2017-11-07T06:34:23.463Z,1044.49
2017-11-07T06:35:23.444Z,1044.51
2017-11-07T06:36:23.431Z,1044.47
2017-11-07T06:37:23.427Z,1044.45
2017-11-07T06:38:23.407Z,1044.46
2017-11-07T06:39:23.389Z,1044.48
2017-11-07T06:40:23.375Z,1044.44
2017-11-07T06:41:23.363Z,1044.43
2017-11-07T06:42:23.350Z,1044.42
2017-11-07T06:43:23.334Z,1044.34
2017-11-07T06:44:23.322Z,1044.25
2017-11-07T06:45:23.315Z,1044.19
2017-11-07T06:46:23.293Z,1044.19
2017-11-07T06:47:23.280Z,1044.19
2017-11-07T06:48:23.266Z,1044.08
2017-11-07T06:49:23.253Z,1044.08
2017-11-07T06:50:23.239Z,1044.08
2017-11-07T06:51:23.227Z,1044.04
2017-11-07T06:52:23.214Z,1044.04
2017-11-07T06:53:23.198Z,1044.09
2017-11-07T06:54:23.186Z,1044.11
2017-11-07T06:55:23.173Z,1044.13
2017-11-07T06:56:23.158Z,1044.2
2017-11-07T06:57:23.146Z,1044.2
2017-11-07T06:58:23.132Z,1044.2
2017-11-07T06:59:23.118Z,1044.22
2017-11-07T07:00:23.124Z,1044.21
2017-11-07T07:01:23.107Z,1044.21
2017-11-07T07:02:23.078Z,1044.22
2017-11-07T07:03:23.066Z,1044.17
2017-11-07T07:04:23.051Z,1044.18
2017-11-07T07:05:23.043Z,1044.19
2017-11-07T07:06:23.040Z,1044.21
2017-11-07T07:07:23.012Z,1044.25
2017-11-07T07:08:23.000Z,1044.28
2017-11-07T07:09:22.986Z,1044.25
2017-11-07T07:10:22.983Z,1044.24
2017-11-07T07:11:22.961Z,1044.23
2017-11-07T07:12:22.947Z,1044.14
2017-11-07T07:13:22.939Z,1044.07
2017-11-07T07:14:22.920Z,1043.99
2017-11-07T07:15:22.904Z,1043.96
2017-11-07T07:16:22.893Z,1043.95
2017-11-07T07:17:22.878Z,1043.89
2017-11-07T07:18:22.864Z,1043.85
2017-11-07T07:19:22.854Z,1043.85
2017-11-07T07:20:22.840Z,1043.85
2017-11-07T07:21:22.826Z,1043.84
2017-11-07T07:22:23.063Z,1043.8
2017-11-07T07:23:22.801Z,1043.8
2017-11-07T07:24:22.786Z,1043.82
2017-11-07T07:25:22.773Z,1043.78
2017-11-07T07:26:22.760Z,1043.75
2017-11-07T07:27:22.747Z,1043.7
2017-11-07T07:28:22.734Z,1043.73
2017-11-07T07:29:22.720Z,1043.74
2017-11-07T07:30:22.710Z,1043.74
2017-11-07T07:31:22.696Z,1043.67
2017-11-07T07:32:22.682Z,1043.62
2017-11-07T07:33:22.670Z,1043.62
2017-11-07T07:34:22.656Z,1043.56
2017-11-07T07:35:22.644Z,1043.58
2017-11-07T07:36:22.631Z,1043.54
2017-11-07T07:37:22.618Z,1043.48
2017-11-07T07:38:22.605Z,1043.47
2017-11-07T07:39:22.593Z,1043.46
2017-11-07T07:40:22.579Z,1043.42
2017-11-07T07:41:22.566Z,1043.45
2017-11-07T07:42:22.555Z,1043.44
2017-11-07T07:43:22.543Z,1043.43
2017-11-07T07:44:22.528Z,1043.43
2017-11-07T07:45:22.516Z,1043.43
2017-11-07T07:46:22.505Z,1043.39
2017-11-07T07:47:22.491Z,1043.36
2017-11-07T07:48:22.486Z,1043.39
2017-11-07T07:49:22.466Z,1043.33
2017-11-07T07:50:22.454Z,1043.31
2017-11-07T07:51:22.441Z,1043.33
2017-11-07T07:52:22.429Z,1043.43
2017-11-07T07:53:22.417Z,1043.37
2017-11-07T07:54:22.406Z,1043.39
2017-11-07T07:55:22.391Z,1043.33
2017-11-07T07:56:22.379Z,1043.29
2017-11-07T07:57:22.368Z,1043.28
2017-11-07T07:58:22.363Z,1043.14
2017-11-07T07:59:22.343Z,1043.13
2017-11-07T08:00:22.331Z,1043.08
2017-11-07T08:01:22.325Z,1042.99
2017-11-07T08:02:22.306Z,1042.95
2017-11-07T08:03:22.292Z,1042.92
2017-11-07T08:04:22.285Z,1042.89
2017-11-07T08:05:22.268Z,1042.85
2017-11-07T08:06:22.257Z,1042.79
2017-11-07T08:07:22.243Z,1042.85
2017-11-07T08:08:22.232Z,1042.82
2017-11-07T08:09:22.220Z,1042.84
2017-11-07T08:10:22.208Z,1042.91
2017-11-07T08:11:22.196Z,1042.81
2017-11-07T08:12:22.187Z,1042.85
2017-11-07T08:13:22.172Z,1042.75
2017-11-07T08:14:22.163Z,1042.71
2017-11-07T08:15:22.147Z,1042.69
2017-11-07T08:16:22.136Z,1042.64
2017-11-07T08:17:22.122Z,1042.63
2017-11-07T08:18:22.113Z,1042.63
2017-11-07T08:19:22.106Z,1042.58
2017-11-07T08:20:22.088Z,1042.69
2017-11-07T08:21:22.075Z,1042.7
2017-11-07T08:22:22.066Z,1042.75
2017-11-07T08:23:22.055Z,1042.78
2017-11-07T08:24:22.052Z,1042.81
2017-11-07T08:25:22.028Z,1042.8
2017-11-07T08:26:22.017Z,1042.79
2017-11-07T08:27:22.009Z,1042.78
2017-11-07T08:28:21.997Z,1042.88
2017-11-07T08:29:21.983Z,1042.83
2017-11-07T08:30:21.971Z,1042.83
2017-11-07T08:31:21.962Z,1042.9
2017-11-07T08:32:21.951Z,1042.83
2017-11-07T08:33:21.935Z,1042.89
2017-11-07T08:34:21.924Z,1042.94
2017-11-07T08:35:21.912Z,1042.98
2017-11-07T08:36:21.901Z,1043
2017-11-07T08:37:21.890Z,1043.05
2017-11-07T08:38:21.877Z,1043.03
2017-11-07T08:39:21.882Z,1043.11
2017-11-07T08:40:21.855Z,1043.17
2017-11-07T08:41:21.841Z,1043.25
2017-11-07T08:42:21.838Z,1043.24
2017-11-07T08:43:21.819Z,1043.22
2017-11-07T08:44:21.807Z,1043.24
2017-11-07T08:45:21.799Z,1043.22
2017-11-07T08:46:21.788Z,1043.22
2017-11-07T08:47:21.770Z,1043.14
2017-11-07T08:48:21.760Z,1043.15
2017-11-07T08:49:21.744Z,1043.02
2017-11-07T08:50:21.734Z,1043.01
2017-11-07T08:51:21.721Z,1042.97
2017-11-07T08:52:21.717Z,1042.97
2017-11-07T08:53:21.727Z,1042.95
2017-11-07T08:54:21.687Z,1042.93
2017-11-07T08:55:21.674Z,1042.91
2017-11-07T08:56:21.668Z,1042.89
2017-11-07T08:57:21.650Z,1042.89
2017-11-07T08:58:21.653Z,1042.89
2017-11-07T08:59:21.626Z,1042.85
2017-11-07T09:00:21.614Z,1042.83
2017-11-07T09:01:21.602Z,1042.83
2017-11-07T09:02:21.590Z,1042.82
2017-11-07T09:03:21.589Z,1042.76
2017-11-07T09:04:21.567Z,1042.79
2017-11-07T09:05:21.559Z,1042.7
2017-11-07T09:06:21.792Z,1042.7
2017-11-07T09:07:21.538Z,1042.7
2017-11-07T09:08:21.525Z,1042.67
2017-11-07T09:09:21.507Z,1042.62
2017-11-07T09:10:21.495Z,1042.65
2017-11-07T09:11:21.481Z,1042.6
2017-11-07T09:12:21.471Z,1042.55
2017-11-07T09:13:21.458Z,1042.54
2017-11-07T09:14:21.452Z,1042.51
2017-11-07T09:15:21.446Z,1042.46
2017-11-07T09:16:21.431Z,1042.37
2017-11-07T09:17:21.412Z,1042.35
2017-11-07T09:18:21.405Z,1042.3
2017-11-07T09:19:21.393Z,1042.25
2017-11-07T09:20:21.378Z,1042.25
2017-11-07T09:21:21.365Z,1042.28
2017-11-07T09:22:21.354Z,1042.24
2017-11-07T09:23:21.342Z,1042.26
2017-11-07T09:24:21.331Z,1042.2
2017-11-07T09:25:21.324Z,1042.18
2017-11-07T09:26:21.309Z,1042.16
2017-11-07T09:27:21.296Z,1042.15
2017-11-07T09:28:21.287Z,1042.06
2017-11-07T09:29:21.275Z,1042.12
2017-11-07T09:30:21.262Z,1042.11
2017-11-07T09:31:21.251Z,1042.08
2017-11-07T09:32:21.242Z,1042.09
2017-11-07T09:33:21.236Z,1042.04
2017-11-07T09:34:21.222Z,1042.06
2017-11-07T09:35:21.410Z,1042.06
2017-11-07T09:36:21.198Z,1042.07
2017-11-07T09:37:21.188Z,1042.06
2017-11-07T09:38:21.177Z,1042.04
2017-11-07T09:39:21.163Z,1042.04
2017-11-07T09:40:21.169Z,1042.02
2017-11-07T09:41:21.141Z,1041.99
2017-11-07T09:42:21.139Z,1041.93
2017-11-07T09:43:21.118Z,1041.98
2017-11-07T09:44:21.105Z,1041.97
2017-11-07T09:45:21.112Z,1041.92
2017-11-07T09:46:21.087Z,1041.92
2017-11-07T09:47:21.083Z,1041.94
2017-11-07T09:48:21.063Z,1041.96
2017-11-07T09:49:21.055Z,1041.96
2017-11-07T09:50:21.047Z,1041.94
2017-11-07T09:51:21.034Z,1041.96
2017-11-07T09:52:21.022Z,1041.97
2017-11-07T09:53:21.015Z,1041.97
2017-11-07T09:54:20.995Z,1041.95
2017-11-07T09:55:20.988Z,1041.96
2017-11-07T09:56:20.973Z,1041.9
2017-11-07T09:57:20.964Z,1041.87
2017-11-07T09:58:20.953Z,1041.86
2017-11-07T09:59:20.938Z,1041.8
2017-11-07T10:00:20.935Z,1041.77
2017-11-07T10:01:20.919Z,1041.76
2017-11-07T10:02:20.933Z,1041.75
2017-11-07T10:03:20.895Z,1041.71
2017-11-07T10:04:20.896Z,1041.69
2017-11-07T10:05:20.875Z,1041.65
2017-11-07T10:06:20.872Z,1041.63
2017-11-07T10:07:20.853Z,1041.58
2017-11-07T10:08:21.092Z,1041.52
2017-11-07T10:09:20.830Z,1041.53
2017-11-07T10:10:20.820Z,1041.4
2017-11-07T10:11:20.815Z,1041.32
2017-11-07T10:12:20.797Z,1041.26
2017-11-07T10:13:20.790Z,1041.21
2017-11-07T10:14:20.779Z,1041.19
2017-11-07T10:15:20.779Z,1041.16
2017-11-07T10:16:20.754Z,1041.13
2017-11-07T10:17:20.744Z,1041.07
2017-11-07T10:18:20.734Z,1041.01
2017-11-07T10:19:20.722Z,1040.92
2017-11-07T10:20:20.717Z,1040.89
2017-11-07T10:21:20.720Z,1040.84
2017-11-07T10:22:20.707Z,1040.8
2017-11-07T10:23:20.693Z,1040.78
2017-11-07T10:24:20.691Z,1040.7
2017-11-07T10:25:20.659Z,1040.63
2017-11-07T10:26:20.672Z,1040.57
2017-11-07T10:27:20.643Z,1040.44
2017-11-07T10:28:20.637Z,1040.38
2017-11-07T10:29:20.626Z,1040.31
2017-11-07T10:30:20.620Z,1040.27
2017-11-07T10:31:20.618Z,1040.27
2017-11-07T10:32:20.589Z,1040.22
2017-11-07T10:33:20.596Z,1040.16
2017-11-07T10:34:20.578Z,1040.06
2017-11-07T10:35:20.574Z,1040.01
2017-11-07T10:36:20.554Z,1039.92
2017-11-07T10:37:20.558Z,1039.82
2017-11-07T10:38:20.531Z,1039.72
2017-11-07T10:39:20.516Z,1039.66
2017-11-07T10:40:20.512Z,1039.6
2017-11-07T10:41:20.514Z,1039.52
2017-11-07T10:42:20.489Z,1039.55
2017-11-07T10:43:20.694Z,1039.53
2017-11-07T10:44:20.474Z,1039.45
2017-11-07T10:45:20.476Z,1039.43
2017-11-07T10:46:20.464Z,1039.4
2017-11-07T10:47:20.456Z,1039.35
2017-11-07T10:48:20.448Z,1039.31
2017-11-07T10:49:20.438Z,1039.26
2017-11-07T10:50:20.432Z,1039.27
2017-11-07T10:51:20.426Z,1039.18
2017-11-07T10:52:20.412Z,1039.12
2017-11-07T10:53:20.589Z,1039.07
2017-11-07T10:54:20.395Z,1039
2017-11-07T10:55:20.378Z,1038.99
2017-11-07T10:56:20.363Z,1038.93
2017-11-07T10:57:20.355Z,1038.86
2017-11-07T10:58:20.351Z,1038.83
2017-11-07T10:59:20.337Z,1038.79
2017-11-07T11:00:20.332Z,1038.78
2017-11-07T11:01:20.314Z,1038.81
2017-11-07T11:02:20.305Z,1038.83
2017-11-07T11:03:20.300Z,1038.87
2017-11-07T11:04:20.295Z,1038.93
2017-11-07T11:05:20.298Z,1038.86
2017-11-07T11:06:20.285Z,1038.91
2017-11-07T11:07:20.267Z,1038.97
2017-11-07T11:08:20.268Z,1038.92
2017-11-07T11:09:20.276Z,1038.98
2017-11-07T11:10:20.239Z,1038.99
2017-11-07T11:11:20.227Z,1038.9
2017-11-07T11:12:20.228Z,1038.88
2017-11-07T11:13:20.224Z,1038.89
2017-11-07T11:14:20.216Z,1038.86
2017-11-07T11:15:20.204Z,1038.77
2017-11-07T11:16:20.199Z,1038.71
2017-11-07T11:17:20.173Z,1038.65
2017-11-07T11:18:20.175Z,1038.62
2017-11-07T11:19:20.171Z,1038.56
2017-11-07T11:20:20.164Z,1038.5
2017-11-07T11:21:20.156Z,1038.36
2017-11-07T11:22:20.143Z,1038.35
2017-11-07T11:23:20.140Z,1038.32
2017-11-07T11:24:20.120Z,1038.3
2017-11-07T11:25:20.122Z,1038.26
2017-11-07T11:26:20.111Z,1038.28
2017-11-07T11:27:20.096Z,1038.29
2017-11-07T11:28:20.097Z,1038.37
2017-11-07T11:29:20.072Z,1038.44
2017-11-07T11:30:20.066Z,1038.55
2017-11-07T11:31:20.058Z,1038.52
2017-11-07T11:32:20.060Z,1038.43
2017-11-07T11:33:20.037Z,1038.42
2017-11-07T11:34:20.036Z,1038.31
2017-11-07T11:35:20.024Z,1038.21
2017-11-07T11:36:20.015Z,1038.24
2017-11-07T11:37:20.011Z,1038.23
2017-11-07T11:38:19.996Z,1038.2
2017-11-07T11:39:19.990Z,1038.21
2017-11-07T11:40:19.984Z,1038.2
2017-11-07T11:41:19.974Z,1038.09
2017-11-07T11:42:19.970Z,1038.1
2017-11-07T11:43:19.955Z,1038.09
2017-11-07T11:44:19.957Z,1038.1
2017-11-07T11:45:19.938Z,1038.02
2017-11-07T11:46:19.935Z,1038.03
2017-11-07T11:47:19.929Z,1038.04
2017-11-07T11:48:19.915Z,1037.97
2017-11-07T11:49:19.906Z,1038.01
2017-11-07T11:50:19.899Z,1038.02
2017-11-07T11:51:19.895Z,1038.03
2017-11-07T11:52:19.882Z,1038.12
2017-11-07T11:53:19.887Z,1038.1
2017-11-07T11:54:19.872Z,1038.19
2017-11-07T11:55:19.860Z,1038.17
2017-11-07T11:56:19.850Z,1038.16
2017-11-07T11:57:19.841Z,1038.14
2017-11-07T11:58:19.833Z,1038.14
2017-11-07T11:59:19.827Z,1038.11
2017-11-07T12:00:19.829Z,1038.12
2017-11-07T12:01:19.809Z,1038.03
2017-11-07T12:02:19.804Z,1038.01
2017-11-07T12:03:19.791Z,1037.86
2017-11-07T12:04:19.785Z,1037.89
2017-11-07T12:05:19.776Z,1037.87
2017-11-07T12:06:19.769Z,1037.84
2017-11-07T12:07:19.758Z,1037.76
2017-11-07T12:08:19.751Z,1037.79